Time;durP1;ratioP1;P1;durP2;ratioP2;P2;SDS_P1;SDS_P2;PMS_P1;PMS_P2;Temp;Humidity;BMP_temperature;BMP_pressure;BME280_temperature;BME280_humidity;BME280_pressure;Samples;Min_cycle;Max_cycle;Signal;HPM_P1;HPM_P2
2023/01/10 00:00:36;;;;;;;9.77;3.23;;;6.70;99.90;;;;;;5075715;28;20205;-91
2023/01/10 00:03:06;;;;;;;13.50;2.70;;;6.70;99.90;;;;;;5075587;28;20248;-90
2023/01/10 00:05:40;;;;;;;12.48;4.05;;;6.80;99.90;;;;;;5074439;28;20522;-93
2023/01/10 00:08:16;;;;;;;8.03;2.50;;;6.90;99.90;;;;;;5075629;28;20205;-90
2023/01/10 00:10:42;;;;;;;9.10;2.83;;;7.00;99.90;;;;;;5075215;28;20233;-92
2023/01/10 00:13:22;;;;;;;8.23;2.30;;;7.00;99.90;;;;;;5075193;28;20187;-92
2023/01/10 00:15:51;;;;;;;15.33;3.00;;;7.00;99.90;;;;;;5074011;28;20193;-92
2023/01/10 00:18:26;;;;;;;13.63;2.80;;;7.00;99.90;;;;;;5074415;28;20198;-90
2023/01/10 00:20:53;;;;;;;15.73;2.93;;;7.00;99.90;;;;;;5074364;28;20193;-93
2023/01/10 00:23:23;;;;;;;10.40;3.00;;;7.00;99.90;;;;;;5073799;28;20206;-92
2023/01/10 00:25:49;;;;;;;10.73;3.07;;;6.90;99.90;;;;;;5073639;28;20224;-90
2023/01/10 00:28:18;;;;;;;8.83;2.47;;;6.90;99.90;;;;;;5074055;28;20218;-94
2023/01/10 00:30:57;;;;;;;11.77;3.03;;;7.00;99.90;;;;;;5074666;28;20233;-92
2023/01/10 00:33:24;;;;;;;15.07;3.33;;;7.00;99.90;;;;;;5074345;28;20332;-92
2023/01/10 00:35:52;;;;;;;13.30;3.03;;;7.00;99.90;;;;;;5073662;28;20791;-93
2023/01/10 00:38:20;;;;;;;9.13;3.50;;;7.00;99.90;;;;;;5073822;28;20205;-93
2023/01/10 00:40:53;;;;;;;11.43;2.83;;;7.00;99.90;;;;;;5074161;28;20190;-92
2023/01/10 00:46:07;;;;;;;11.20;2.57;;;6.90;99.90;;;;;;5077325;28;20252;-91
2023/01/10 00:48:35;;;;;;;12.47;2.97;;;6.80;99.90;;;;;;5077482;28;20190;-93
2023/01/10 00:51:04;;;;;;;9.90;2.90;;;6.80;99.90;;;;;;5077149;28;20226;-92
2023/01/10 00:53:33;;;;;;;10.17;2.80;;;6.70;99.90;;;;;;5076865;28;20202;-93
2023/01/10 00:56:00;;;;;;;10.17;2.83;;;6.70;99.90;;;;;;5076869;28;20208;-92
2023/01/10 00:58:27;;;;;;;9.80;3.03;;;6.70;99.90;;;;;;5077214;28;20193;-93
2023/01/10 01:00:54;;;;;;;11.30;2.73;;;6.60;99.90;;;;;;5076715;28;20195;-91
2023/01/10 01:03:22;;;;;;;9.50;3.00;;;6.60;99.90;;;;;;5076763;28;20186;-92
2023/01/10 01:05:49;;;;;;;12.93;3.50;;;6.50;99.90;;;;;;5076299;28;20221;-92
2023/01/10 01:08:17;;;;;;;16.03;3.00;;;6.50;99.90;;;;;;5077275;28;20190;-89
2023/01/10 01:10:46;;;;;;;16.80;3.57;;;6.50;99.90;;;;;;5075835;28;20237;-88
2023/01/10 01:13:16;;;;;;;13.63;2.90;;;6.40;99.90;;;;;;5076517;28;20204;-89
2023/01/10 01:15:42;;;;;;;11.73;3.10;;;6.40;99.90;;;;;;5075881;28;20190;-90
2023/01/10 01:18:11;;;;;;;15.43;4.10;;;6.40;99.90;;;;;;5075192;28;20432;-88
2023/01/10 01:20:39;;;;;;;15.73;3.03;;;6.50;99.90;;;;;;5075504;28;20198;-89
2023/01/10 01:23:07;;;;;;;15.30;3.33;;;6.40;99.90;;;;;;5075678;28;20197;-89
2023/01/10 01:25:34;;;;;;;9.87;2.47;;;6.50;99.90;;;;;;5075784;28;20190;-88
2023/01/10 01:28:03;;;;;;;9.37;3.07;;;6.50;99.90;;;;;;5075674;28;20206;-88
2023/01/10 01:30:30;;;;;;;13.83;2.87;;;6.50;99.90;;;;;;5075359;28;20225;-89
2023/01/10 01:32:59;;;;;;;15.17;3.07;;;6.60;99.90;;;;;;5075541;28;20210;-88
2023/01/10 01:35:26;;;;;;;16.50;3.80;;;6.60;99.90;;;;;;5074724;28;20846;-88
2023/01/10 01:37:53;;;;;;;15.37;3.80;;;6.60;99.90;;;;;;5075469;28;20209;-87
2023/01/10 01:40:22;;;;;;;16.37;3.30;;;6.60;99.90;;;;;;5075528;28;20201;-88
2023/01/10 01:42:54;;;;;;;20.20;3.97;;;6.70;99.90;;;;;;5075400;28;20209;-87
2023/01/10 01:45:37;;;;;;;12.23;3.20;;;6.60;99.90;;;;;;5075496;28;20234;-90
2023/01/10 01:48:10;;;;;;;16.93;3.60;;;6.60;99.90;;;;;;5075593;28;20208;-89
2023/01/10 01:50:40;;;;;;;16.93;3.50;;;6.60;99.90;;;;;;5075051;28;20715;-88
2023/01/10 01:53:11;;;;;;;19.17;3.43;;;6.60;99.90;;;;;;5075361;28;20198;-87
2023/01/10 01:55:39;;;;;;;16.17;3.80;;;6.70;99.90;;;;;;5073938;28;20661;-89
2023/01/10 01:58:10;;;;;;;12.67;3.53;;;6.60;99.90;;;;;;5074948;28;20209;-88
2023/01/10 02:00:38;;;;;;;17.57;4.23;;;6.60;99.90;;;;;;5075325;28;20201;-89
2023/01/10 02:03:06;;;;;;;11.67;3.30;;;6.50;99.90;;;;;;5075159;28;20202;-87
2023/01/10 02:05:35;;;;;;;20.80;3.87;;;6.50;99.90;;;;;;5074876;28;20210;-88
2023/01/10 02:08:02;;;;;;;12.60;3.50;;;6.40;99.90;;;;;;5074881;28;20658;-88
2023/01/10 02:10:35;;;;;;;19.57;3.93;;;6.40;99.90;;;;;;5075157;28;20244;-89
2023/01/10 02:13:06;;;;;;;18.33;4.68;;;6.30;99.90;;;;;;5074160;28;20428;-90
2023/01/10 02:15:34;;;;;;;16.13;4.33;;;6.40;99.90;;;;;;5074970;28;20201;-89
2023/01/10 02:18:04;;;;;;;18.27;2.77;;;6.30;99.90;;;;;;5056931;28;20198;-89
2023/01/10 02:20:43;;;;;;;26.67;4.60;;;6.30;99.90;;;;;;5074463;28;20209;-89
2023/01/10 02:23:58;;;;;;;13.93;3.40;;;6.20;99.90;;;;;;5074880;28;20209;-88
2023/01/10 02:27:04;;;;;;;18.77;3.80;;;6.20;99.90;;;;;;4984963;28;20220;-88
2023/01/10 02:30:00;;;;;;;16.50;3.58;;;6.20;99.90;;;;;;4993082;28;20799;-88
2023/01/10 02:32:39;;;;;;;18.10;4.10;;;6.20;99.90;;;;;;5072278;28;20232;-87
2023/01/10 02:35:22;;;;;;;19.40;3.47;;;6.30;99.90;;;;;;5074291;28;20201;-88
2023/01/10 02:37:57;;;;;;;18.20;3.47;;;6.20;99.90;;;;;;5073831;28;20217;-88
2023/01/10 02:40:30;;;;;;;17.03;3.97;;;6.10;99.90;;;;;;5074051;28;20206;-88
2023/01/10 02:43:06;;;;;;;19.30;3.77;;;6.10;99.90;;;;;;5082373;28;20212;-90
2023/01/10 02:45:38;;;;;;;24.07;4.60;;;6.00;99.90;;;;;;5081001;28;20202;-87
2023/01/10 02:48:08;;;;;;;14.80;3.37;;;6.00;99.90;;;;;;5081005;28;20198;-89
2023/01/10 02:50:50;;;;;;;12.60;3.67;;;5.90;99.90;;;;;;5094005;28;20210;-88
2023/01/10 02:53:22;;;;;;;14.47;3.90;;;5.90;99.90;;;;;;5093512;28;20217;-90
2023/01/10 02:56:37;;;;;;;12.17;2.90;;;5.80;99.90;;;;;;5074018;28;20649;-93
2023/01/10 02:59:30;;;;;;;19.00;3.83;;;5.80;99.90;;;;;;5015693;28;20210;-88
2023/01/10 03:02:03;;;;;;;19.10;3.60;;;5.70;99.90;;;;;;5088417;28;20220;-90
2023/01/10 03:04:45;;;;;;;23.83;4.13;;;5.60;99.90;;;;;;5093587;28;20197;-90
2023/01/10 03:07:18;;;;;;;16.53;3.63;;;5.70;99.90;;;;;;5093814;28;20197;-89
2023/01/10 03:09:52;;;;;;;14.70;4.10;;;5.70;99.90;;;;;;5093776;28;20286;-88
2023/01/10 03:12:32;;;;;;;14.20;3.40;;;5.60;99.90;;;;;;5093882;28;20224;-88
2023/01/10 03:15:00;;;;;;;17.50;4.27;;;5.60;99.90;;;;;;5093386;28;20204;-89
2023/01/10 03:17:30;;;;;;;13.20;3.63;;;5.70;99.90;;;;;;5079983;28;20206;-91
2023/01/10 03:20:03;;;;;;;22.73;4.20;;;5.70;99.90;;;;;;5093955;28;20201;-91
2023/01/10 03:22:33;;;;;;;21.70;3.60;;;5.70;99.90;;;;;;5093995;28;20227;-88
2023/01/10 03:25:03;;;;;;;25.65;4.97;;;5.80;99.90;;;;;;5093130;28;20426;-90
2023/01/10 03:27:37;;;;;;;22.93;4.37;;;6.00;99.90;;;;;;5093738;28;20201;-94
2023/01/10 03:30:13;;;;;;;14.47;4.17;;;6.00;99.90;;;;;;5093738;28;20205;-94
2023/01/10 03:32:41;;;;;;;16.93;3.83;;;6.00;99.90;;;;;;5093400;28;20208;-91
2023/01/10 03:35:12;;;;;;;18.70;3.73;;;6.00;99.90;;;;;;5093492;28;20201;-89
2023/01/10 03:37:45;;;;;;;22.37;3.93;;;6.00;99.90;;;;;;5093880;28;20220;-88
2023/01/10 03:40:16;;;;;;;18.33;3.90;;;6.00;99.90;;;;;;5093527;28;20201;-88
2023/01/10 03:45:40;;;;;;;22.80;4.33;;;6.00;99.90;;;;;;5093574;28;20726;-89
2023/01/10 03:48:08;;;;;;;18.57;3.60;;;5.90;99.90;;;;;;5061840;28;20259;-89
2023/01/10 03:50:38;;;;;;;20.07;4.60;;;5.90;99.90;;;;;;5093267;28;20221;-90
2023/01/10 03:53:06;;;;;;;23.00;3.60;;;5.90;99.90;;;;;;5093449;28;20208;-89
2023/01/10 03:55:36;;;;;;;22.10;4.37;;;6.00;99.90;;;;;;5093973;28;20201;-90
2023/01/10 03:58:02;;;;;;;22.20;3.67;;;5.90;99.90;;;;;;5093399;28;20287;-87
2023/01/10 04:00:29;;;;;;;19.20;4.00;;;5.90;99.90;;;;;;5084830;28;20198;-87
2023/01/10 04:02:57;;;;;;;21.20;4.30;;;5.90;99.90;;;;;;5088570;28;20212;-88
2023/01/10 04:05:24;;;;;;;18.57;4.17;;;5.80;99.90;;;;;;5093304;28;20216;-89
2023/01/10 04:07:52;;;;;;;21.60;3.63;;;5.80;99.90;;;;;;5093507;28;20205;-89
2023/01/10 04:10:26;;;;;;;25.00;4.33;;;5.80;99.90;;;;;;5093337;28;20221;-91
2023/01/10 04:12:52;;;;;;;24.37;4.37;;;5.70;99.90;;;;;;5093211;28;20238;-88
2023/01/10 04:15:19;;;;;;;20.67;4.50;;;5.70;99.90;;;;;;5093138;28;20224;-92
2023/01/10 04:17:47;;;;;;;17.90;3.70;;;5.60;99.90;;;;;;5093359;28;20205;-88
2023/01/10 04:20:14;;;;;;;25.83;4.13;;;5.60;99.90;;;;;;5096570;28;20205;-88
2023/01/10 04:22:44;;;;;;;16.70;3.57;;;5.50;99.90;;;;;;5097181;28;20649;-88
2023/01/10 04:25:13;;;;;;;17.03;3.57;;;5.50;99.90;;;;;;5097063;28;20625;-89
2023/01/10 04:27:41;;;;;;;22.87;4.63;;;5.40;99.90;;;;;;5097149;28;20213;-90
2023/01/10 04:30:09;;;;;;;21.33;4.27;;;5.40;99.90;;;;;;5097218;28;20537;-89
2023/01/10 04:32:38;;;;;;;25.37;4.37;;;5.40;99.90;;;;;;5097277;28;20302;-93
2023/01/10 04:35:06;;;;;;;27.57;4.67;;;5.40;99.90;;;;;;5096339;28;20207;-92
2023/01/10 04:37:35;;;;;;;23.43;5.10;;;5.40;99.90;;;;;;5096910;28;20207;-89
2023/01/10 04:40:06;;;;;;;20.67;4.80;;;5.40;99.90;;;;;;5097021;28;20241;-88
2023/01/10 04:42:40;;;;;;;17.23;4.20;;;5.40;99.90;;;;;;5097114;28;20192;-92
2023/01/10 04:45:10;;;;;;;21.33;4.13;;;5.40;99.90;;;;;;5097053;28;20219;-91
2023/01/10 04:47:38;;;;;;;20.13;4.40;;;5.40;99.90;;;;;;5097276;28;20305;-90
2023/01/10 04:50:05;;;;;;;25.67;4.77;;;5.40;99.90;;;;;;5096727;28;20204;-88
2023/01/10 04:52:32;;;;;;;17.93;3.97;;;5.30;99.90;;;;;;5096509;28;20238;-92
2023/01/10 04:55:05;;;;;;;19.13;4.10;;;5.20;99.90;;;;;;5096871;28;20206;-90
2023/01/10 04:57:32;;;;;;;25.67;4.83;;;5.20;99.90;;;;;;5096786;28;20201;-90
2023/01/10 05:00:00;;;;;;;26.27;4.13;;;5.10;99.90;;;;;;5096522;28;20205;-88
2023/01/10 05:02:27;;;;;;;17.93;4.30;;;5.10;99.90;;;;;;5096670;28;20189;-88
2023/01/10 05:04:54;;;;;;;19.37;4.03;;;5.10;99.90;;;;;;5096589;28;20197;-87
2023/01/10 05:07:22;;;;;;;23.03;4.80;;;5.10;99.90;;;;;;5096804;28;20205;-87
2023/01/10 05:09:49;;;;;;;18.37;4.23;;;5.10;99.90;;;;;;5096333;28;20241;-88
2023/01/10 05:12:16;;;;;;;13.10;3.93;;;5.00;99.90;;;;;;5096193;28;20224;-90
2023/01/10 05:14:43;;;;;;;20.03;4.37;;;4.90;99.90;;;;;;5096130;28;20194;-89
2023/01/10 05:17:11;;;;;;;19.50;4.27;;;4.80;99.90;;;;;;5096454;28;20470;-89
2023/01/10 05:19:40;;;;;;;22.80;4.33;;;4.90;99.90;;;;;;5096493;28;20344;-89
2023/01/10 05:22:07;;;;;;;21.90;4.13;;;4.90;99.90;;;;;;5096240;28;20196;-88
2023/01/10 05:24:34;;;;;;;18.43;4.27;;;4.90;99.90;;;;;;5095921;28;20315;-93
2023/01/10 05:27:01;;;;;;;24.03;4.27;;;4.90;99.90;;;;;;5096372;28;20212;-90
2023/01/10 05:29:27;;;;;;;20.47;3.90;;;4.80;99.90;;;;;;5096751;28;20208;-91
2023/01/10 05:31:54;;;;;;;19.33;4.73;;;4.80;99.90;;;;;;5096533;28;20232;-91
2023/01/10 05:34:22;;;;;;;20.23;4.50;;;4.80;99.90;;;;;;5096969;28;20193;-91
2023/01/10 05:36:49;;;;;;;24.10;4.70;;;4.80;99.90;;;;;;5096909;28;20224;-87
2023/01/10 05:39:16;;;;;;;20.80;4.93;;;4.70;99.90;;;;;;5095803;28;20201;-89
2023/01/10 05:41:44;;;;;;;25.17;5.27;;;4.70;99.90;;;;;;5095221;28;20656;-89
2023/01/10 05:44:13;;;;;;;20.77;4.27;;;4.60;99.90;;;;;;5095765;28;20661;-89
2023/01/10 05:46:41;;;;;;;21.93;4.60;;;4.60;99.90;;;;;;5095592;28;20212;-90
2023/01/10 05:49:07;;;;;;;22.13;4.67;;;4.70;99.90;;;;;;5095514;28;20228;-87
2023/01/10 05:51:35;;;;;;;25.73;4.87;;;4.60;99.90;;;;;;5095224;28;20480;-87
2023/01/10 05:54:03;;;;;;;19.87;3.93;;;4.60;99.90;;;;;;5095375;28;20205;-87
2023/01/10 05:56:30;;;;;;;23.30;4.50;;;4.50;99.90;;;;;;5093441;28;20698;-88
2023/01/10 05:58:57;;;;;;;21.67;4.00;;;4.50;99.90;;;;;;5095429;28;20205;-88
2023/01/10 06:01:24;;;;;;;19.00;4.20;;;4.50;99.90;;;;;;5086602;28;20546;-88
2023/01/10 06:03:51;;;;;;;17.90;3.67;;;4.50;99.90;;;;;;5088277;28;20242;-88
2023/01/10 06:06:18;;;;;;;24.43;4.23;;;4.50;99.90;;;;;;5091976;28;20565;-87
2023/01/10 06:08:46;;;;;;;22.23;4.90;;;4.40;99.90;;;;;;5084205;28;20652;-89
2023/01/10 06:11:13;;;;;;;18.30;3.97;;;4.50;99.90;;;;;;5094143;28;20827;-88
2023/01/10 06:13:39;;;;;;;29.67;4.97;;;4.50;99.90;;;;;;5094476;28;20212;-87
2023/01/10 06:16:07;;;;;;;22.00;3.87;;;4.40;99.90;;;;;;5094757;28;20209;-87
2023/01/10 06:18:35;;;;;;;18.50;4.13;;;4.50;99.90;;;;;;5091588;28;20212;-88
2023/01/10 06:21:02;;;;;;;22.13;3.23;;;4.30;99.90;;;;;;5094674;28;20446;-88
2023/01/10 06:23:29;;;;;;;18.00;3.53;;;4.30;99.90;;;;;;5094452;28;20441;-88
2023/01/10 06:25:57;;;;;;;20.30;4.37;;;4.40;99.90;;;;;;5094263;28;20446;-89
2023/01/10 06:28:24;;;;;;;16.02;3.47;;;4.40;99.90;;;;;;5094676;28;20407;-86
2023/01/10 06:30:51;;;;;;;20.47;4.37;;;4.30;99.90;;;;;;5093210;28;20213;-90
2023/01/10 06:33:18;;;;;;;22.50;4.07;;;4.30;99.90;;;;;;5094157;28;20497;-88
2023/01/10 06:35:46;;;;;;;19.37;4.27;;;4.40;99.90;;;;;;5094263;28;20452;-88
2023/01/10 06:38:15;;;;;;;20.80;4.23;;;4.20;99.90;;;;;;5087907;28;20232;-88
2023/01/10 06:40:42;;;;;;;17.77;3.70;;;4.20;99.90;;;;;;5087674;28;20342;-88
2023/01/10 06:43:10;;;;;;;20.50;4.00;;;4.20;99.90;;;;;;5080598;28;20452;-89
2023/01/10 06:45:37;;;;;;;21.97;4.43;;;4.20;99.90;;;;;;5094060;28;20437;-87
2023/01/10 06:48:05;;;;;;;22.88;5.30;;;4.20;99.90;;;;;;5093808;28;20466;-89
2023/01/10 06:50:32;;;;;;;20.03;4.23;;;4.20;99.90;;;;;;5093867;28;20242;-86
2023/01/10 06:53:02;;;;;;;19.00;4.20;;;4.10;99.90;;;;;;5093830;28;20501;-89
2023/01/10 06:55:31;;;;;;;19.63;4.13;;;4.20;99.90;;;;;;5094250;28;20442;-90
2023/01/10 06:58:01;;;;;;;16.47;3.93;;;4.30;99.90;;;;;;5094506;28;20452;-90
2023/01/10 07:00:31;;;;;;;24.20;4.10;;;4.10;99.90;;;;;;5094996;28;20441;-90
2023/01/10 07:02:59;;;;;;;18.07;3.63;;;4.20;99.90;;;;;;5084008;28;20202;-88
2023/01/10 07:05:26;;;;;;;18.40;4.33;;;4.10;99.90;;;;;;5092419;28;20448;-91
2023/01/10 07:07:53;;;;;;;25.35;5.43;;;4.10;99.90;;;;;;5082937;28;20432;-91
2023/01/10 07:10:20;;;;;;;19.30;4.53;;;4.20;99.90;;;;;;5087700;28;20251;-87
2023/01/10 07:12:46;;;;;;;16.63;3.20;;;4.10;99.90;;;;;;5093867;28;20480;-88
2023/01/10 07:15:13;;;;;;;16.43;3.47;;;4.10;99.90;;;;;;5093575;28;20456;-88
2023/01/10 07:17:41;;;;;;;20.13;4.03;;;4.20;99.90;;;;;;5089980;28;20450;-89
2023/01/10 07:20:10;;;;;;;17.33;3.50;;;4.20;99.90;;;;;;5093059;28;20462;-88
2023/01/10 07:22:37;;;;;;;17.97;4.50;;;4.20;99.90;;;;;;5093069;28;20452;-87
2023/01/10 07:25:04;;;;;;;16.63;3.90;;;4.20;99.90;;;;;;5092602;28;20446;-86
2023/01/10 07:27:32;;;;;;;26.48;5.57;;;4.20;99.90;;;;;;5092077;28;20449;-87
2023/01/10 07:29:58;;;;;;;16.80;4.13;;;4.30;99.90;;;;;;5090643;28;20233;-88
2023/01/10 07:32:25;;;;;;;21.57;4.53;;;4.30;99.90;;;;;;5093309;28;20231;-87
2023/01/10 07:34:55;;;;;;;18.13;4.07;;;4.20;99.90;;;;;;5093252;28;20835;-88
2023/01/10 07:37:21;;;;;;;14.83;4.30;;;4.30;99.90;;;;;;5093739;28;20307;-89
2023/01/10 07:39:48;;;;;;;18.47;4.20;;;4.40;99.90;;;;;;5092548;28;20205;-87
2023/01/10 07:42:15;;;;;;;17.23;4.40;;;4.40;99.90;;;;;;5091501;28;20613;-86
2023/01/10 07:44:42;;;;;;;25.63;4.20;;;4.30;99.90;;;;;;5089323;28;20207;-87
2023/01/10 07:47:09;;;;;;;17.53;3.97;;;4.40;99.90;;;;;;5092545;28;20201;-87
2023/01/10 07:49:39;;;;;;;16.47;4.00;;;4.50;99.90;;;;;;5090902;28;20453;-89
2023/01/10 07:52:13;;;;;;;21.03;4.00;;;4.50;99.90;;;;;;5079269;28;20902;-89
2023/01/10 07:54:41;;;;;;;21.57;3.80;;;4.40;99.90;;;;;;5081672;28;20207;-90
2023/01/10 07:57:08;;;;;;;16.67;3.93;;;4.40;99.90;;;;;;5082002;28;20456;-93
2023/01/10 07:59:35;;;;;;;21.90;3.73;;;4.50;99.90;;;;;;5084061;28;20204;-89
2023/01/10 08:02:01;;;;;;;21.50;3.83;;;4.50;99.90;;;;;;5088822;28;20209;-88
2023/01/10 08:04:28;;;;;;;21.67;4.37;;;4.50;99.90;;;;;;5086764;28;20452;-88
2023/01/10 08:06:55;;;;;;;17.30;3.90;;;4.50;99.90;;;;;;5087350;28;20231;-89
2023/01/10 08:09:23;;;;;;;15.50;3.30;;;4.60;99.90;;;;;;5090360;28;20605;-88
2023/01/10 08:11:50;;;;;;;18.87;3.90;;;4.70;99.90;;;;;;5084355;28;20205;-89
2023/01/10 08:14:17;;;;;;;21.23;4.13;;;4.70;99.90;;;;;;5084636;28;20480;-91
2023/01/10 08:16:44;;;;;;;19.03;4.50;;;4.60;99.90;;;;;;5086949;28;20846;-90
2023/01/10 08:19:15;;;;;;;16.40;4.67;;;4.70;99.90;;;;;;5092123;28;20205;-87
2023/01/10 08:21:42;;;;;;;15.40;4.07;;;4.70;99.90;;;;;;5087089;28;20205;-89
2023/01/10 08:24:11;;;;;;;22.47;4.47;;;4.70;99.90;;;;;;5081794;28;20210;-89
2023/01/10 08:26:39;;;;;;;16.30;3.73;;;4.80;99.90;;;;;;5079877;28;20214;-88
2023/01/10 08:29:07;;;;;;;20.17;4.97;;;4.80;99.90;;;;;;5093029;28;20445;-89
2023/01/10 08:31:34;;;;;;;22.57;4.30;;;4.80;99.90;;;;;;5084901;28;20206;-90
2023/01/10 08:34:01;;;;;;;17.47;4.37;;;4.70;99.90;;;;;;5085427;28;20233;-88
2023/01/10 08:36:28;;;;;;;16.63;4.07;;;4.70;99.90;;;;;;5077933;28;20460;-89
2023/01/10 08:38:56;;;;;;;18.93;4.53;;;4.80;99.90;;;;;;5090887;28;20197;-89
2023/01/10 08:41:22;;;;;;;16.97;4.27;;;4.90;99.90;;;;;;5090867;28;20237;-88
2023/01/10 08:43:51;;;;;;;20.43;4.13;;;4.90;99.90;;;;;;5091320;28;20201;-89
2023/01/10 08:46:19;;;;;;;17.57;4.03;;;4.90;99.90;;;;;;5091574;28;20201;-89
2023/01/10 08:48:47;;;;;;;13.50;3.30;;;5.00;99.90;;;;;;5091488;28;20217;-89
2023/01/10 08:51:14;;;;;;;25.93;4.00;;;5.10;99.90;;;;;;5091126;28;20197;-89
2023/01/10 08:53:40;;;;;;;20.77;3.87;;;5.10;99.90;;;;;;5091503;28;20229;-90
2023/01/10 08:56:08;;;;;;;19.97;4.07;;;5.10;99.90;;;;;;5086030;28;20617;-89
2023/01/10 08:58:35;;;;;;;23.13;4.60;;;5.10;99.90;;;;;;5086705;28;20221;-88
2023/01/10 09:01:06;;;;;;;20.57;4.53;;;5.20;99.90;;;;;;5092394;28;20530;-90
2023/01/10 09:03:33;;;;;;;19.03;3.97;;;5.20;99.90;;;;;;5092409;28;20228;-89
2023/01/10 09:06:00;;;;;;;21.93;4.77;;;5.20;99.90;;;;;;5094968;28;20208;-90
2023/01/10 09:08:27;;;;;;;20.75;6.20;;;5.40;99.90;;;;;;5093696;28;20469;-89
2023/01/10 09:10:54;;;;;;;14.83;3.93;;;5.50;99.90;;;;;;5095843;28;20589;-91
2023/01/10 09:13:20;;;;;;;25.13;4.60;;;5.50;99.90;;;;;;5095091;28;20345;-91
2023/01/10 09:15:47;;;;;;;11.03;3.87;;;5.60;99.90;;;;;;5091624;28;20208;-89
2023/01/10 09:18:15;;;;;;;17.37;4.60;;;5.60;99.90;;;;;;5084935;28;20201;-91
2023/01/10 09:20:42;;;;;;;20.03;4.07;;;5.70;99.90;;;;;;5095177;28;20649;-89
2023/01/10 09:23:11;;;;;;;24.00;5.67;;;5.70;99.90;;;;;;5095474;28;20213;-89
2023/01/10 09:25:38;;;;;;;20.70;4.40;;;5.70;99.90;;;;;;5094249;28;20201;-89
2023/01/10 09:28:05;;;;;;;19.70;4.20;;;5.80;99.90;;;;;;5094035;28;20216;-91
2023/01/10 09:30:32;;;;;;;15.90;3.90;;;5.90;99.90;;;;;;5086757;28;20194;-91
2023/01/10 09:32:59;;;;;;;17.80;4.27;;;5.90;99.90;;;;;;5095033;28;20220;-88
2023/01/10 09:35:29;;;;;;;17.43;4.07;;;5.90;99.90;;;;;;5086487;28;20208;-89
2023/01/10 09:37:56;;;;;;;14.00;3.53;;;6.10;99.90;;;;;;5091842;28;20307;-88
2023/01/10 09:40:33;;;;;;;16.37;4.50;;;6.10;99.90;;;;;;5094952;28;20201;-90
2023/01/10 09:43:08;;;;;;;15.80;4.03;;;6.10;99.90;;;;;;5095048;28;20204;-87
2023/01/10 09:45:40;;;;;;;17.53;4.60;;;6.10;99.90;;;;;;5094075;28;20197;-92
2023/01/10 09:48:15;;;;;;;16.83;3.70;;;6.10;99.90;;;;;;5095777;28;20190;-91
2023/01/10 09:50:57;;;;;;;14.77;4.13;;;6.20;99.90;;;;;;5098226;28;20728;-91
2023/01/10 09:53:27;;;;;;;16.37;3.40;;;6.30;99.90;;;;;;5095257;28;20225;-89
2023/01/10 09:55:57;;;;;;;16.27;4.10;;;6.30;99.90;;;;;;5094746;28;20192;-89
2023/01/10 09:58:27;;;;;;;19.73;5.00;;;6.30;99.90;;;;;;5095260;28;20205;-90
2023/01/10 10:00:58;;;;;;;23.10;6.03;;;6.30;99.90;;;;;;5096449;28;20208;-90
2023/01/10 10:03:32;;;;;;;15.67;5.17;;;6.20;99.90;;;;;;5095714;28;20189;-90
2023/01/10 10:06:00;;;;;;;17.10;4.83;;;6.30;99.90;;;;;;5095787;28;20212;-90
2023/01/10 10:08:27;;;;;;;17.20;4.03;;;6.40;99.90;;;;;;5095806;28;20197;-89
2023/01/10 10:11:31;;;;;;;19.20;3.40;;;6.50;99.90;;;;;;5095796;28;20225;-91
2023/01/10 10:14:06;;;;;;;21.60;5.32;;;6.50;99.90;;;;;;5094047;28;20829;-91
2023/01/10 10:16:43;;;;;;;17.07;4.33;;;6.70;99.90;;;;;;5094998;28;20212;-91
2023/01/10 10:19:22;;;;;;;15.40;3.30;;;6.70;99.90;;;;;;5095419;28;20202;-89
2023/01/10 10:22:04;;;;;;;16.90;4.20;;;6.70;99.90;;;;;;5096645;28;20201;-91
2023/01/10 10:24:46;;;;;;;20.47;4.50;;;6.70;99.90;;;;;;5101099;28;20195;-91
2023/01/10 10:27:19;;;;;;;22.67;4.20;;;6.90;99.90;;;;;;5096766;28;20213;-92
2023/01/10 10:30:14;;;;;;;12.40;3.87;;;7.00;99.90;;;;;;5094896;28;20190;-92
2023/01/10 10:32:57;;;;;;;15.77;3.60;;;6.80;99.90;;;;;;5094110;28;20221;-89
2023/01/10 10:35:28;;;;;;;17.60;3.30;;;6.70;99.90;;;;;;5095605;28;20217;-92
2023/01/10 10:37:58;;;;;;;16.10;3.80;;;6.80;99.90;;;;;;5095907;28;20690;-90
2023/01/10 10:40:28;;;;;;;22.40;4.03;;;6.90;99.90;;;;;;5094627;28;20565;-93
2023/01/10 10:42:59;;;;;;;14.70;3.67;;;6.70;99.90;;;;;;5095327;28;20648;-92
2023/01/10 10:45:38;;;;;;;19.23;4.83;;;6.80;99.90;;;;;;5094922;28;20209;-90
2023/01/10 10:48:13;;;;;;;14.43;3.97;;;6.80;99.90;;;;;;5095023;28;20296;-91
2023/01/10 10:50:50;;;;;;;13.43;3.53;;;6.90;99.90;;;;;;5095500;28;20537;-91
2023/01/10 10:53:18;;;;;;;17.77;3.77;;;6.90;99.90;;;;;;5094983;28;20702;-92
2023/01/10 10:55:45;;;;;;;18.10;3.67;;;7.00;99.90;;;;;;5095515;28;20258;-92
2023/01/10 10:58:14;;;;;;;15.57;4.00;;;7.00;99.90;;;;;;5095695;28;20197;-92
2023/01/10 11:00:41;;;;;;;15.17;4.13;;;7.10;99.90;;;;;;5095057;28;20205;-91
2023/01/10 11:03:25;;;;;;;18.27;5.40;;;7.20;99.90;;;;;;5095258;28;20209;-91
2023/01/10 11:05:52;;;;;;;18.57;4.43;;;7.20;99.90;;;;;;5094934;28;20208;-92
2023/01/10 11:08:22;;;;;;;12.90;3.57;;;7.20;99.90;;;;;;5094964;28;20207;-92
2023/01/10 11:10:53;;;;;;;15.63;3.70;;;7.30;99.90;;;;;;5095258;28;20700;-92
2023/01/10 11:13:29;;;;;;;20.80;4.67;;;7.30;99.90;;;;;;5094771;28;20572;-92
2023/01/10 11:15:56;;;;;;;19.10;3.33;;;7.20;99.90;;;;;;5094695;28;20548;-92
2023/01/10 11:18:25;;;;;;;16.63;4.27;;;7.20;99.90;;;;;;5094891;28;20205;-91
2023/01/10 11:20:57;;;;;;;15.77;3.90;;;7.20;99.90;;;;;;5095576;28;20204;-92
2023/01/10 11:23:37;;;;;;;17.10;3.97;;;7.30;99.90;;;;;;5094834;28;20301;-92
2023/01/10 11:26:05;;;;;;;22.00;3.70;;;7.30;99.90;;;;;;5095025;28;20217;-91
2023/01/10 11:28:33;;;;;;;16.67;4.57;;;7.40;99.90;;;;;;5095299;28;20223;-91
2023/01/10 11:31:01;;;;;;;15.73;3.83;;;7.40;99.90;;;;;;5094527;28;20208;-93
2023/01/10 11:33:31;;;;;;;19.87;5.20;;;7.50;99.90;;;;;;5094797;28;20591;-91
2023/01/10 11:36:00;;;;;;;21.97;4.23;;;7.50;99.90;;;;;;5094303;28;20679;-92
2023/01/10 11:38:29;;;;;;;13.17;3.23;;;7.50;99.90;;;;;;5094386;28;20209;-91
2023/01/10 11:40:59;;;;;;;16.20;3.90;;;7.60;99.90;;;;;;5094286;28;20262;-93
2023/01/10 11:43:33;;;;;;;21.20;4.67;;;7.80;99.90;;;;;;5094455;28;20438;-93
2023/01/10 11:46:03;;;;;;;15.67;3.87;;;7.80;99.90;;;;;;5094349;28;20848;-94
2023/01/10 11:48:43;;;;;;;16.73;3.83;;;7.80;99.90;;;;;;5094535;28;20287;-92
2023/01/10 11:51:19;;;;;;;13.93;4.63;;;7.80;99.90;;;;;;5093952;28;20205;-91
2023/01/10 11:53:50;;;;;;;17.87;3.73;;;7.70;99.90;;;;;;5094410;28;20224;-91
2023/01/10 11:56:25;;;;;;;15.33;3.73;;;7.70;99.90;;;;;;5094065;28;20292;-92
2023/01/10 11:58:53;;;;;;;17.00;4.57;;;7.70;99.90;;;;;;5094109;28;20648;-92
2023/01/10 12:01:29;;;;;;;14.20;3.77;;;7.70;99.90;;;;;;5093676;28;20212;-92
2023/01/10 12:03:56;;;;;;;13.43;3.77;;;7.60;99.90;;;;;;5093946;28;20246;-92
2023/01/10 12:06:24;;;;;;;18.00;4.20;;;7.70;99.90;;;;;;5093549;28;20217;-93
2023/01/10 12:08:57;;;;;;;20.80;5.70;;;7.60;99.90;;;;;;5095696;28;20902;-91
2023/01/10 12:11:28;;;;;;;23.30;4.07;;;7.70;99.90;;;;;;5097778;28;20219;-93
2023/01/10 12:13:57;;;;;;;18.27;3.73;;;7.60;99.90;;;;;;5097532;28;20255;-94
2023/01/10 12:16:27;;;;;;;24.83;4.30;;;7.60;99.90;;;;;;5090492;28;20638;-92
2023/01/10 12:18:58;;;;;;;19.77;4.37;;;7.50;99.90;;;;;;5089855;28;20225;-92
2023/01/10 12:21:30;;;;;;;14.27;4.80;;;7.40;99.90;;;;;;5064846;28;20227;-90
2023/01/10 12:24:02;;;;;;;18.90;4.07;;;7.30;99.90;;;;;;5082408;28;20251;-90
2023/01/10 12:26:32;;;;;;;17.97;4.30;;;7.50;99.90;;;;;;5092631;28;20257;-91
2023/01/10 12:29:07;;;;;;;11.73;3.83;;;7.40;99.90;;;;;;5089541;28;20205;-93
2023/01/10 12:31:43;;;;;;;14.97;3.80;;;7.40;99.90;;;;;;5098552;28;20231;-92
2023/01/10 12:34:19;;;;;;;14.00;3.40;;;7.40;99.90;;;;;;5099327;28;20246;-91
2023/01/10 12:36:58;;;;;;;14.93;3.60;;;7.40;99.90;;;;;;5097686;28;20664;-91
2023/01/10 12:39:33;;;;;;;14.00;3.40;;;7.50;99.90;;;;;;5098504;28;20212;-90
2023/01/10 12:45:08;;;;;;;12.60;3.17;;;7.30;99.90;;;;;;5102841;28;20192;-91
2023/01/10 12:47:48;;;;;;;16.37;3.87;;;7.30;99.90;;;;;;5104908;28;20204;-91
2023/01/10 12:50:20;;;;;;;15.90;3.60;;;7.20;99.90;;;;;;5101963;28;20198;-92
2023/01/10 12:53:25;;;;;;;12.73;4.00;;;7.30;99.90;;;;;;5097764;28;20211;-92
2023/01/10 12:56:11;;;;;;;9.30;2.93;;;7.30;99.90;;;;;;5092583;28;20228;-94
2023/01/10 12:58:47;;;;;;;15.93;4.05;;;7.40;99.90;;;;;;5097049;28;20431;-94
2023/01/10 13:01:18;;;;;;;14.23;3.50;;;7.30;99.90;;;;;;5100136;28;20308;-93
2023/01/10 13:03:54;;;;;;;15.17;3.10;;;7.30;99.90;;;;;;5108059;28;20335;-92
2023/01/10 13:06:30;;;;;;;13.67;3.00;;;7.30;99.90;;;;;;5107212;28;20201;-94
2023/01/10 13:09:04;;;;;;;7.90;2.57;;;7.30;99.90;;;;;;5106424;28;20219;-94
2023/01/10 13:11:43;;;;;;;14.57;3.77;;;7.30;99.90;;;;;;5106952;28;20208;-94
2023/01/10 13:14:21;;;;;;;14.70;3.10;;;7.30;99.90;;;;;;5105250;28;20224;-93